0B1 weather

Bethel Regional Airport
Bethel, Maine, United States

Public forecast

Using degrees Fahrenheit for public forecast. Weather courtesy of forecast.io.

Closest aviation weather report (METAR) to Bethel Regional Airport

Closest report is Berlin Regional Airport, 18.1 nm (33.5 km) WNW. Retrieved 2019/10/15 01:23 UTC (0 seconds ago):

KBML 150123Z AUTO 34004KT 10SM -RA SCT029 SCT034 OVC046 11/06 A2999 RMK AO2 RAB0057 P0000 T01110056

Closest aviation forecast (TAF) to Bethel Regional Airport

Closest forecast is Mount Washington Regional Airport, 31.7 nm (58.7 km) W. Retrieved 2019-10-15 00:22 UTC (48 minutes ago):

TAF KHIE 142320Z 1500/1524 22004KT P6SM BKN080 FM150600 26004KT P6SM SCT100